Time;durP1;ratioP1;P1;durP2;ratioP2;P2;SDS_P1;SDS_P2;PMS_P1;PMS_P2;Temp;Humidity;BMP_temperature;BMP_pressure;BME280_temperature;BME280_humidity;BME280_pressure;Samples;Min_cycle;Max_cycle;Signal;HPM_P1;HPM_P2
2022/12/13 00:02:10;;;;;;;20.45;7.40;;;-1.70;99.90;;;;;;5014869;28;20045;-70
2022/12/13 00:04:36;;;;;;;18.95;7.47;;;-1.70;99.90;;;;;;5013074;28;20038;-69
2022/12/13 00:07:01;;;;;;;20.52;7.20;;;-1.70;99.90;;;;;;5008935;28;20033;-70
2022/12/13 00:09:27;;;;;;;16.35;6.38;;;-1.80;99.90;;;;;;5014671;28;20049;-70
2022/12/13 00:11:53;;;;;;;22.60;7.95;;;-1.80;99.90;;;;;;5016469;28;20045;-70
2022/12/13 00:14:19;;;;;;;21.17;6.97;;;-1.80;99.90;;;;;;5017355;28;20037;-70
2022/12/13 00:16:46;;;;;;;17.45;7.28;;;-1.90;99.90;;;;;;5018566;28;20398;-70
2022/12/13 00:19:12;;;;;;;20.95;7.60;;;-1.90;99.90;;;;;;4998897;28;20048;-70
2022/12/13 00:21:37;;;;;;;18.20;7.20;;;-1.90;99.90;;;;;;5000542;28;20038;-68
2022/12/13 00:24:05;;;;;;;18.58;7.68;;;-2.00;99.90;;;;;;5017321;28;20553;-69
2022/12/13 00:26:31;;;;;;;14.77;6.95;;;-1.90;99.90;;;;;;5016636;28;20116;-69
2022/12/13 00:29:04;;;;;;;20.60;7.88;;;-1.90;99.90;;;;;;5020973;28;20489;-70
2022/12/13 00:31:30;;;;;;;19.88;6.53;;;-2.00;99.90;;;;;;5020613;28;20057;-69
2022/12/13 00:33:59;;;;;;;17.02;6.72;;;-2.00;99.90;;;;;;5003537;28;20091;-69
2022/12/13 00:36:25;;;;;;;21.70;7.38;;;-2.00;99.90;;;;;;5002471;28;20752;-70
2022/12/13 00:38:59;;;;;;;22.80;7.75;;;-2.00;99.90;;;;;;5020246;28;20109;-70
2022/12/13 00:41:26;;;;;;;18.88;8.05;;;-2.00;99.90;;;;;;5019960;28;20115;-70
2022/12/13 00:43:52;;;;;;;23.20;7.22;;;-2.00;99.90;;;;;;5019401;28;20037;-70
2022/12/13 00:46:21;;;;;;;20.05;7.45;;;-2.00;99.90;;;;;;5022550;28;20034;-69
2022/12/13 00:48:51;;;;;;;18.60;6.93;;;-2.00;99.90;;;;;;5019008;28;20322;-69
2022/12/13 00:51:17;;;;;;;21.35;8.57;;;-2.00;99.90;;;;;;5014357;28;20034;-71
2022/12/13 00:53:43;;;;;;;21.13;6.72;;;-2.00;99.90;;;;;;5020557;28;20128;-69
2022/12/13 00:56:14;;;;;;;17.42;8.05;;;-2.00;99.90;;;;;;4999849;28;20030;-69
2022/12/13 00:58:40;;;;;;;17.00;7.45;;;-2.10;99.90;;;;;;5019935;28;20044;-69
2022/12/13 01:01:08;;;;;;;18.45;7.28;;;-2.10;99.90;;;;;;5018133;28;20044;-69
2022/12/13 01:03:34;;;;;;;30.25;9.73;;;-2.10;99.90;;;;;;4999852;28;20072;-69
2022/12/13 01:05:59;;;;;;;18.92;7.18;;;-2.10;99.90;;;;;;5019346;28;20436;-69
2022/12/13 01:08:26;;;;;;;19.33;8.07;;;-2.10;99.90;;;;;;5019599;28;20041;-69
2022/12/13 01:10:52;;;;;;;19.77;7.30;;;-2.10;99.90;;;;;;5018225;28;20121;-69
2022/12/13 01:13:18;;;;;;;20.02;6.85;;;-2.10;99.90;;;;;;5017397;28;20040;-69
2022/12/13 01:15:46;;;;;;;19.58;7.88;;;-2.10;99.90;;;;;;5020753;28;20089;-69
2022/12/13 01:18:17;;;;;;;16.55;7.38;;;-2.10;99.90;;;;;;5013416;28;20236;-69
2022/12/13 01:21:03;;;;;;;22.98;7.78;;;-2.10;99.90;;;;;;5013545;28;20402;-69
2022/12/13 01:23:29;;;;;;;21.73;7.13;;;-2.10;99.90;;;;;;5016774;28;20040;-69
2022/12/13 01:25:55;;;;;;;20.85;7.75;;;-2.10;99.90;;;;;;5014671;28;20564;-69
2022/12/13 01:28:21;;;;;;;17.90;6.78;;;-2.10;99.90;;;;;;5020034;28;20038;-69
2022/12/13 01:30:58;;;;;;;16.10;6.63;;;-2.10;99.90;;;;;;4999815;28;20092;-69
2022/12/13 01:33:25;;;;;;;18.38;6.45;;;-2.10;99.90;;;;;;5018328;28;20063;-70
2022/12/13 01:35:50;;;;;;;19.50;7.22;;;-2.20;99.90;;;;;;5018392;28;20116;-69
2022/12/13 01:38:16;;;;;;;21.75;7.72;;;-2.20;99.90;;;;;;5019668;28;20120;-69
2022/12/13 01:40:44;;;;;;;20.58;7.15;;;-2.20;99.90;;;;;;4998286;28;20400;-70
2022/12/13 01:43:12;;;;;;;18.55;8.00;;;-2.20;99.90;;;;;;5013027;28;20037;-69
2022/12/13 01:45:38;;;;;;;21.00;8.63;;;-2.30;99.90;;;;;;5020313;28;20026;-68
2022/12/13 01:48:09;;;;;;;24.45;8.57;;;-2.30;99.90;;;;;;5014502;28;20099;-69
2022/12/13 01:50:38;;;;;;;21.95;7.60;;;-2.30;99.90;;;;;;4966192;28;1073616;-69
2022/12/13 01:53:06;;;;;;;18.63;7.45;;;-2.30;99.90;;;;;;5018478;28;20084;-69
2022/12/13 01:55:35;;;;;;;31.23;7.97;;;-2.30;99.90;;;;;;5002650;28;20054;-69
2022/12/13 01:58:04;;;;;;;20.45;7.68;;;-2.30;99.90;;;;;;5017999;28;20074;-70
2022/12/13 02:00:30;;;;;;;19.20;7.45;;;-2.30;99.90;;;;;;5001424;28;20112;-70
2022/12/13 02:02:58;;;;;;;20.90;7.63;;;-2.30;99.90;;;;;;5017551;28;20047;-69
2022/12/13 02:05:35;;;;;;;18.33;6.90;;;-2.30;99.90;;;;;;5001660;28;20048;-69
2022/12/13 02:08:02;;;;;;;17.20;7.15;;;-2.40;99.90;;;;;;5016782;28;20485;-68
2022/12/13 02:10:28;;;;;;;22.92;7.93;;;-2.40;99.90;;;;;;5018058;28;20563;-68
2022/12/13 02:12:54;;;;;;;21.25;8.27;;;-2.40;99.90;;;;;;5018657;28;20041;-69
2022/12/13 02:15:21;;;;;;;22.80;7.93;;;-2.50;99.90;;;;;;5020546;28;20033;-69
2022/12/13 02:18:02;;;;;;;18.50;7.05;;;-2.50;99.90;;;;;;5026219;28;20033;-70
2022/12/13 02:20:45;;;;;;;20.55;7.68;;;-2.40;99.90;;;;;;5001891;28;20572;-69
2022/12/13 02:23:36;;;;;;;20.92;7.05;;;-2.50;99.90;;;;;;5013328;28;20042;-69
2022/12/13 02:26:14;;;;;;;21.27;7.88;;;-2.40;99.90;;;;;;5012582;28;20042;-70
2022/12/13 02:28:52;;;;;;;19.35;7.32;;;-2.40;99.90;;;;;;4996115;28;20069;-69
2022/12/13 02:31:37;;;;;;;27.20;9.68;;;-2.40;99.90;;;;;;5015723;28;20109;-69
2022/12/13 02:34:18;;;;;;;18.58;7.20;;;-2.40;99.90;;;;;;5016872;28;20512;-71
2022/12/13 02:37:05;;;;;;;21.92;7.57;;;-2.40;99.90;;;;;;4997354;28;21043;-69
2022/12/13 02:39:40;;;;;;;19.65;7.38;;;-2.40;99.90;;;;;;5019156;28;20037;-69
2022/12/13 02:42:14;;;;;;;19.92;7.65;;;-2.40;99.90;;;;;;5012865;28;20133;-69
2022/12/13 02:44:45;;;;;;;16.55;6.95;;;-2.40;99.90;;;;;;5023157;28;20864;-69
2022/12/13 02:47:19;;;;;;;16.85;7.32;;;-2.30;99.90;;;;;;5022095;28;20042;-70
2022/12/13 02:49:49;;;;;;;21.55;7.60;;;-2.30;99.90;;;;;;5021086;28;20082;-69
2022/12/13 02:52:19;;;;;;;19.02;7.95;;;-2.30;99.90;;;;;;5023112;28;20037;-69
2022/12/13 02:54:46;;;;;;;15.40;6.43;;;-2.30;99.90;;;;;;5022214;28;20038;-70
2022/12/13 02:57:36;;;;;;;22.73;7.88;;;-2.30;99.90;;;;;;5022109;28;20080;-69
2022/12/13 03:00:07;;;;;;;19.33;6.80;;;-2.30;99.90;;;;;;5021134;28;20056;-70
2022/12/13 03:02:58;;;;;;;17.83;8.23;;;-2.30;99.90;;;;;;5023554;28;20042;-69
2022/12/13 03:08:29;;;;;;;21.58;7.47;;;-2.30;99.90;;;;;;5014801;28;20073;-70
2022/12/13 03:11:11;;;;;;;20.48;7.32;;;-2.40;99.90;;;;;;5016585;28;20038;-69
2022/12/13 03:13:55;;;;;;;20.38;8.05;;;-2.40;99.90;;;;;;5014474;28;20569;-69
2022/12/13 03:16:25;;;;;;;20.05;7.80;;;-2.50;99.90;;;;;;5017216;28;20034;-69
2022/12/13 03:18:58;;;;;;;21.38;7.20;;;-2.50;99.90;;;;;;5001104;28;20029;-69
2022/12/13 03:21:24;;;;;;;21.75;7.95;;;-2.50;99.90;;;;;;5018636;28;20042;-69
2022/12/13 03:23:50;;;;;;;19.33;7.55;;;-2.60;99.90;;;;;;5018213;28;20121;-69
2022/12/13 03:26:23;;;;;;;18.73;8.70;;;-2.60;99.90;;;;;;5017276;28;20701;-69
2022/12/13 03:28:49;;;;;;;22.55;7.82;;;-2.60;99.90;;;;;;5000188;28;20030;-69
2022/12/13 03:31:15;;;;;;;32.70;9.27;;;-2.60;99.90;;;;;;5019382;28;20040;-69
2022/12/13 03:33:40;;;;;;;22.63;8.55;;;-2.60;99.90;;;;;;5017151;28;20076;-69
2022/12/13 03:36:07;;;;;;;24.95;9.32;;;-2.50;99.90;;;;;;5020234;28;20049;-70
2022/12/13 03:38:33;;;;;;;16.80;6.40;;;-2.50;99.90;;;;;;5013307;28;20022;-69
2022/12/13 03:41:06;;;;;;;25.77;10.32;;;-2.50;99.90;;;;;;5001493;28;20111;-69
2022/12/13 03:43:32;;;;;;;22.13;7.75;;;-2.40;99.90;;;;;;5012719;28;20029;-69
2022/12/13 03:45:58;;;;;;;22.30;8.23;;;-2.40;99.90;;;;;;5017299;28;20038;-69
2022/12/13 03:48:23;;;;;;;26.88;9.00;;;-2.40;99.90;;;;;;5021297;28;20394;-69
2022/12/13 03:50:51;;;;;;;23.73;8.32;;;-2.40;99.90;;;;;;5018513;28;20041;-69
2022/12/13 03:53:17;;;;;;;22.60;8.25;;;-2.40;99.90;;;;;;5020033;28;20026;-69
2022/12/13 03:55:43;;;;;;;27.70;8.07;;;-2.40;99.90;;;;;;5021674;28;20026;-70
2022/12/13 03:58:08;;;;;;;25.33;8.60;;;-2.40;99.90;;;;;;5003581;28;20030;-70
2022/12/13 04:00:34;;;;;;;22.48;9.20;;;-2.40;99.90;;;;;;5023233;28;20052;-70
2022/12/13 04:02:59;;;;;;;21.38;8.13;;;-2.40;99.90;;;;;;5022134;28;20095;-70
2022/12/13 04:05:25;;;;;;;21.92;8.48;;;-2.40;99.90;;;;;;5032768;28;20064;-71
2022/12/13 04:07:51;;;;;;;25.27;9.10;;;-2.40;99.90;;;;;;5037428;28;20030;-70
2022/12/13 04:10:16;;;;;;;21.88;9.20;;;-2.40;99.90;;;;;;5020217;28;20037;-70
2022/12/13 04:15:26;;;;;;;26.52;8.90;;;-2.40;99.90;;;;;;5038329;28;20048;-71
2022/12/13 04:17:52;;;;;;;24.55;8.45;;;-2.40;99.90;;;;;;5033652;28;20033;-70
2022/12/13 04:20:17;;;;;;;18.60;7.80;;;-2.40;99.90;;;;;;5021847;28;20513;-70
2022/12/13 04:22:43;;;;;;;26.98;8.88;;;-2.40;99.90;;;;;;5021949;28;20041;-70
2022/12/13 04:25:11;;;;;;;21.75;9.10;;;-2.40;99.90;;;;;;5020158;28;20121;-70
2022/12/13 04:27:36;;;;;;;23.27;8.43;;;-2.40;99.90;;;;;;5019951;28;20037;-70
2022/12/13 04:30:04;;;;;;;26.98;8.75;;;-2.40;99.90;;;;;;5022592;28;20033;-69
2022/12/13 04:32:30;;;;;;;26.90;9.02;;;-2.40;99.90;;;;;;5021980;28;20033;-69
2022/12/13 04:34:56;;;;;;;24.90;7.97;;;-2.40;99.90;;;;;;5019382;28;20041;-70
2022/12/13 04:37:21;;;;;;;31.02;10.10;;;-2.40;99.90;;;;;;5021961;28;20033;-69
2022/12/13 04:39:47;;;;;;;24.77;8.88;;;-2.40;99.90;;;;;;5002822;28;20099;-70
2022/12/13 04:42:13;;;;;;;26.13;9.23;;;-2.40;99.90;;;;;;5020002;28;20041;-69
2022/12/13 04:44:38;;;;;;;24.40;8.45;;;-2.30;99.90;;;;;;5022474;28;20033;-69
2022/12/13 04:47:04;;;;;;;24.67;8.90;;;-2.30;99.90;;;;;;5022162;28;20040;-70
2022/12/13 04:49:30;;;;;;;21.95;8.50;;;-2.30;99.90;;;;;;5020619;28;20095;-69
2022/12/13 04:51:56;;;;;;;22.00;8.85;;;-2.30;99.90;;;;;;5005502;28;20447;-70
2022/12/13 04:54:22;;;;;;;21.48;8.52;;;-2.30;99.90;;;;;;5021615;28;20061;-70
2022/12/13 04:56:48;;;;;;;22.02;9.60;;;-2.30;99.90;;;;;;5019964;28;20053;-69
2022/12/13 04:59:14;;;;;;;23.95;8.88;;;-2.30;99.90;;;;;;5020360;28;20046;-71
2022/12/13 05:01:40;;;;;;;23.60;8.70;;;-2.30;99.90;;;;;;5020470;28;20533;-70
2022/12/13 05:04:05;;;;;;;24.02;8.38;;;-2.30;99.90;;;;;;5018471;28;20038;-69
2022/12/13 05:06:31;;;;;;;22.30;8.35;;;-2.30;99.90;;;;;;5020582;28;20461;-69
2022/12/13 05:08:56;;;;;;;23.67;9.52;;;-2.30;99.90;;;;;;5018474;28;20053;-70
2022/12/13 05:11:22;;;;;;;22.33;8.48;;;-2.30;99.90;;;;;;5021719;28;20037;-69
2022/12/13 05:13:47;;;;;;;24.98;8.32;;;-2.20;99.90;;;;;;5015521;28;20034;-70
2022/12/13 05:16:14;;;;;;;19.55;8.90;;;-2.20;99.90;;;;;;5019343;28;20125;-70
2022/12/13 05:18:41;;;;;;;26.42;8.57;;;-2.30;99.90;;;;;;5019661;28;20029;-69
2022/12/13 05:21:08;;;;;;;24.20;9.75;;;-2.30;99.90;;;;;;5020758;28;20473;-69
2022/12/13 05:23:35;;;;;;;24.63;10.15;;;-2.30;99.90;;;;;;5018395;28;20060;-70
2022/12/13 05:26:00;;;;;;;28.45;8.85;;;-2.30;99.90;;;;;;4999568;28;20050;-69
2022/12/13 05:28:28;;;;;;;28.58;10.00;;;-2.30;99.90;;;;;;5017962;28;20045;-71
2022/12/13 05:30:55;;;;;;;21.30;8.15;;;-2.20;99.90;;;;;;5016657;28;20040;-70
2022/12/13 05:33:22;;;;;;;22.30;8.50;;;-2.30;99.90;;;;;;5016661;28;20630;-70
2022/12/13 05:35:48;;;;;;;24.02;8.93;;;-2.30;99.90;;;;;;5017122;28;20099;-70
2022/12/13 05:38:13;;;;;;;26.58;8.52;;;-2.40;99.90;;;;;;5018262;28;20557;-69
2022/12/13 05:40:39;;;;;;;26.13;8.52;;;-2.40;99.90;;;;;;5017806;28;20106;-70
2022/12/13 05:43:05;;;;;;;21.88;8.52;;;-2.40;99.90;;;;;;5020690;28;20588;-70
2022/12/13 05:45:31;;;;;;;18.73;8.05;;;-2.50;99.90;;;;;;5015437;28;20125;-70
2022/12/13 05:47:57;;;;;;;19.45;7.85;;;-2.50;99.90;;;;;;5020873;28;20041;-70
2022/12/13 05:50:23;;;;;;;26.38;8.45;;;-2.50;99.90;;;;;;5019316;28;20038;-69
2022/12/13 05:52:49;;;;;;;23.00;9.05;;;-2.50;99.90;;;;;;5011318;28;20076;-70
2022/12/13 05:55:15;;;;;;;22.80;8.00;;;-2.50;99.90;;;;;;5009611;28;20486;-70
2022/12/13 05:57:40;;;;;;;26.38;9.25;;;-2.50;99.90;;;;;;4990646;28;20052;-70
2022/12/13 06:00:08;;;;;;;25.42;9.07;;;-2.50;99.90;;;;;;5009898;28;20363;-70
2022/12/13 06:02:37;;;;;;;26.95;10.70;;;-2.40;99.90;;;;;;5010862;28;20048;-70
2022/12/13 06:05:04;;;;;;;24.23;9.35;;;-2.50;99.90;;;;;;4989195;28;20116;-70
2022/12/13 06:07:30;;;;;;;21.30;9.10;;;-2.40;99.90;;;;;;5006856;28;20045;-69
2022/12/13 06:09:55;;;;;;;21.80;8.63;;;-2.40;99.90;;;;;;5007690;28;20041;-70
2022/12/13 06:12:21;;;;;;;19.27;7.68;;;-2.40;99.90;;;;;;5009429;28;20065;-69
2022/12/13 06:14:47;;;;;;;23.98;8.70;;;-2.40;99.90;;;;;;5008603;28;20128;-69
2022/12/13 06:17:12;;;;;;;21.65;9.10;;;-2.40;99.90;;;;;;5007078;28;20077;-69
2022/12/13 06:19:38;;;;;;;22.23;8.63;;;-2.40;99.90;;;;;;5005944;28;20038;-70
2022/12/13 06:22:04;;;;;;;21.45;9.13;;;-2.50;99.90;;;;;;5008754;28;20034;-69
2022/12/13 06:24:30;;;;;;;20.23;8.68;;;-2.50;99.90;;;;;;5005790;28;20101;-67
2022/12/13 06:26:55;;;;;;;21.05;8.55;;;-2.40;99.90;;;;;;5006917;28;20117;-70
2022/12/13 06:29:22;;;;;;;22.85;8.70;;;-2.50;99.90;;;;;;5011973;28;20053;-70
2022/12/13 06:31:58;;;;;;;19.83;7.95;;;-2.50;99.90;;;;;;5010611;28;20041;-69
2022/12/13 06:34:23;;;;;;;21.20;8.45;;;-2.50;99.90;;;;;;5006263;28;20517;-70
2022/12/13 06:36:49;;;;;;;24.33;8.68;;;-2.50;99.90;;;;;;4993527;28;20025;-69
2022/12/13 06:39:14;;;;;;;23.08;8.40;;;-2.50;99.90;;;;;;5008749;28;20030;-69
2022/12/13 06:41:40;;;;;;;24.35;9.07;;;-2.50;99.90;;;;;;5007176;28;20030;-69
2022/12/13 06:44:06;;;;;;;22.38;8.75;;;-2.60;99.90;;;;;;5005292;28;20421;-70
2022/12/13 06:46:32;;;;;;;24.60;8.73;;;-2.60;99.90;;;;;;5007081;28;20026;-69
2022/12/13 06:48:57;;;;;;;20.25;7.80;;;-2.60;99.90;;;;;;5007605;28;20101;-70
2022/12/13 06:51:23;;;;;;;22.40;8.57;;;-2.60;99.90;;;;;;4990981;28;20040;-69
2022/12/13 06:53:49;;;;;;;23.30;8.05;;;-2.70;99.90;;;;;;5004697;28;20061;-70
2022/12/13 06:56:14;;;;;;;17.60;8.18;;;-2.70;99.90;;;;;;5006939;28;20025;-70
2022/12/13 06:58:41;;;;;;;21.15;7.93;;;-2.70;99.90;;;;;;5009059;28;20034;-69
2022/12/13 07:01:08;;;;;;;27.52;9.57;;;-2.70;99.90;;;;;;5010932;28;20091;-69
2022/12/13 07:03:34;;;;;;;21.77;9.02;;;-2.70;99.90;;;;;;5005664;28;20135;-69
2022/12/13 07:06:04;;;;;;;23.10;8.38;;;-2.70;99.90;;;;;;5009237;28;20366;-69
2022/12/13 07:08:30;;;;;;;23.27;9.13;;;-2.80;99.90;;;;;;5009705;28;20702;-69
2022/12/13 07:10:57;;;;;;;22.27;9.10;;;-2.80;99.90;;;;;;5009206;28;20052;-70
2022/12/13 07:13:22;;;;;;;20.67;8.93;;;-2.80;99.90;;;;;;5009031;28;20040;-70
2022/12/13 07:15:49;;;;;;;23.55;10.13;;;-2.80;99.90;;;;;;5013329;28;20030;-70
2022/12/13 07:18:15;;;;;;;22.90;9.07;;;-2.80;99.90;;;;;;5006774;28;20045;-71
2022/12/13 07:20:42;;;;;;;25.67;9.07;;;-2.80;99.90;;;;;;5008817;28;20046;-71
2022/12/13 07:23:08;;;;;;;23.23;8.75;;;-2.80;99.90;;;;;;5006726;28;20040;-70
2022/12/13 07:25:33;;;;;;;24.98;8.73;;;-2.80;99.90;;;;;;5010959;28;20025;-71
2022/12/13 07:28:01;;;;;;;28.75;10.93;;;-2.80;99.90;;;;;;5009516;28;20368;-70
2022/12/13 07:30:27;;;;;;;31.13;11.82;;;-2.90;99.90;;;;;;5013084;28;20496;-71
2022/12/13 07:32:53;;;;;;;30.75;10.95;;;-2.90;99.90;;;;;;5014040;28;20044;-69
2022/12/13 07:35:18;;;;;;;25.98;9.43;;;-2.90;99.90;;;;;;5005931;28;20049;-70
2022/12/13 07:37:44;;;;;;;33.22;12.38;;;-2.80;99.90;;;;;;4994178;28;20032;-69
2022/12/13 07:40:10;;;;;;;34.25;11.90;;;-2.80;99.90;;;;;;4997401;28;20071;-67
2022/12/13 07:42:36;;;;;;;25.95;10.57;;;-2.80;99.90;;;;;;5008753;28;20069;-70
2022/12/13 07:45:01;;;;;;;29.23;11.52;;;-2.80;99.90;;;;;;5011578;28;20077;-69
2022/12/13 07:47:31;;;;;;;32.83;12.43;;;-2.80;99.90;;;;;;5018231;28;20421;-70
2022/12/13 07:49:57;;;;;;;31.15;11.07;;;-2.80;99.90;;;;;;4995223;28;20045;-70
2022/12/13 07:52:23;;;;;;;30.60;11.10;;;-2.80;99.90;;;;;;5009067;28;20042;-70
2022/12/13 07:54:49;;;;;;;26.50;9.18;;;-2.80;99.90;;;;;;4994108;28;20499;-70
2022/12/13 07:57:15;;;;;;;25.52;10.02;;;-2.80;99.90;;;;;;5013075;28;20037;-70
2022/12/13 07:59:40;;;;;;;29.05;9.68;;;-2.80;99.90;;;;;;5010208;28;20406;-68
2022/12/13 08:02:11;;;;;;;24.08;9.55;;;-2.80;99.90;;;;;;5016845;28;20573;-69
2022/12/13 08:04:37;;;;;;;27.75;8.60;;;-2.80;99.90;;;;;;5013402;28;20129;-71
2022/12/13 08:07:05;;;;;;;21.00;8.60;;;-2.80;99.90;;;;;;4996948;28;20112;-71
2022/12/13 08:09:31;;;;;;;26.38;9.35;;;-2.40;99.90;;;;;;5009958;28;20526;-71
2022/12/13 08:11:56;;;;;;;23.95;8.93;;;-2.30;99.90;;;;;;5019690;28;20072;-71
2022/12/13 08:14:22;;;;;;;22.73;8.98;;;-2.30;99.90;;;;;;5013157;28;20045;-71
2022/12/13 08:16:48;;;;;;;23.15;7.78;;;-2.40;99.90;;;;;;5009084;28;20038;-73
2022/12/13 08:19:13;;;;;;;24.10;8.95;;;-2.40;99.90;;;;;;5009190;28;20128;-71
2022/12/13 08:21:40;;;;;;;26.75;10.13;;;-2.40;99.90;;;;;;5010100;28;20045;-69
2022/12/13 08:24:07;;;;;;;24.35;10.15;;;-2.40;99.90;;;;;;5009307;28;20129;-69
2022/12/13 08:26:32;;;;;;;30.92;10.48;;;-2.40;99.90;;;;;;5009708;28;20033;-72
2022/12/13 08:28:58;;;;;;;22.23;8.85;;;-2.40;99.90;;;;;;4992478;28;20737;-71
2022/12/13 08:31:24;;;;;;;22.77;9.05;;;-2.40;99.90;;;;;;5017154;28;20038;-69
2022/12/13 08:33:50;;;;;;;27.20;9.65;;;-2.40;99.90;;;;;;5016397;28;20509;-70
2022/12/13 08:36:17;;;;;;;23.40;9.50;;;-2.40;99.90;;;;;;5009665;28;20030;-69
2022/12/13 08:38:45;;;;;;;25.38;9.18;;;-2.30;99.90;;;;;;5013198;28;20033;-71
2022/12/13 08:41:12;;;;;;;34.58;10.50;;;-2.30;99.90;;;;;;5014166;28;20037;-70
2022/12/13 08:43:38;;;;;;;26.02;9.60;;;-2.30;99.90;;;;;;5009307;28;20041;-70
2022/12/13 08:46:04;;;;;;;22.63;9.27;;;-2.30;99.90;;;;;;5010184;28;20030;-70
2022/12/13 08:48:30;;;;;;;24.85;10.70;;;-2.30;99.90;;;;;;4995061;28;20030;-70
2022/12/13 08:51:08;;;;;;;22.05;8.57;;;-2.20;99.90;;;;;;5015968;28;20038;-71
2022/12/13 08:53:34;;;;;;;22.67;8.65;;;-2.20;99.90;;;;;;5010970;28;20121;-70
2022/12/13 08:56:06;;;;;;;26.95;9.35;;;-2.20;99.90;;;;;;5016084;28;20777;-70
2022/12/13 08:58:31;;;;;;;25.98;10.23;;;-2.20;99.90;;;;;;5013753;28;20034;-70
2022/12/13 09:00:57;;;;;;;25.98;9.45;;;-2.10;99.90;;;;;;5019959;28;20044;-70
2022/12/13 09:03:23;;;;;;;23.98;8.60;;;-2.10;99.90;;;;;;5010862;28;20116;-71
2022/12/13 09:05:48;;;;;;;27.13;10.98;;;-2.10;99.90;;;;;;5016261;28;20044;-70
2022/12/13 09:08:15;;;;;;;22.33;9.43;;;-2.10;99.90;;;;;;5010107;28;20038;-70
2022/12/13 09:10:40;;;;;;;20.65;8.75;;;-2.00;99.90;;;;;;4993877;28;20088;-70
2022/12/13 09:13:06;;;;;;;24.60;9.57;;;-2.00;99.90;;;;;;5026659;28;20041;-70
2022/12/13 09:15:32;;;;;;;24.35;9.65;;;-2.00;99.90;;;;;;5031852;28;20037;-71
2022/12/13 09:17:58;;;;;;;27.52;10.43;;;-1.90;99.90;;;;;;5030517;28;20829;-71
2022/12/13 09:20:24;;;;;;;27.75;10.55;;;-1.90;99.90;;;;;;5037086;28;20041;-70
2022/12/13 09:22:50;;;;;;;26.92;10.43;;;-1.80;99.90;;;;;;5032074;28;20030;-70
2022/12/13 09:25:16;;;;;;;25.77;10.05;;;-1.80;99.90;;;;;;5029257;28;20053;-69
2022/12/13 09:27:42;;;;;;;23.58;8.98;;;-1.70;99.90;;;;;;5025743;28;20038;-68
2022/12/13 09:30:12;;;;;;;21.63;9.57;;;-1.70;99.90;;;;;;5030170;28;20010;-70
2022/12/13 09:32:39;;;;;;;23.42;10.27;;;-1.70;99.90;;;;;;5024164;28;20042;-70
2022/12/13 09:35:06;;;;;;;26.55;11.60;;;-1.70;99.90;;;;;;5013459;28;20037;-72
2022/12/13 09:37:32;;;;;;;24.75;10.25;;;-1.60;99.90;;;;;;5021271;28;20037;-70
2022/12/13 09:39:58;;;;;;;28.73;11.05;;;-1.60;99.90;;;;;;5018641;28;20041;-70
2022/12/13 09:42:27;;;;;;;28.77;9.90;;;-1.60;99.90;;;;;;5029979;28;20045;-71
2022/12/13 09:45:04;;;;;;;28.17;10.57;;;-1.60;99.90;;;;;;5021018;28;21217;-70
2022/12/13 09:47:35;;;;;;;26.92;11.15;;;-1.50;99.90;;;;;;5012351;28;20083;-70
2022/12/13 09:50:04;;;;;;;31.17;11.43;;;-1.50;99.90;;;;;;5023742;28;20026;-70
2022/12/13 09:52:39;;;;;;;21.45;7.47;;;-1.40;99.90;;;;;;5026290;28;20183;-70
2022/12/13 09:55:19;;;;;;;31.40;11.13;;;-1.40;99.90;;;;;;5015499;28;20030;-69
2022/12/13 09:57:45;;;;;;;25.20;8.23;;;-1.40;99.90;;;;;;5025924;28;20095;-71
2022/12/13 10:00:14;;;;;;;29.73;10.70;;;-1.40;99.90;;;;;;5026701;28;20524;-70
2022/12/13 10:02:46;;;;;;;24.63;10.10;;;-1.40;99.90;;;;;;5006788;28;20034;-70
2022/12/13 10:05:25;;;;;;;34.63;12.32;;;-1.40;99.90;;;;;;5017445;28;20048;-71
2022/12/13 10:07:54;;;;;;;28.38;11.32;;;-1.40;99.90;;;;;;5020923;28;20034;-69
2022/12/13 10:10:20;;;;;;;36.63;11.52;;;-1.30;99.90;;;;;;5030941;28;20025;-70
2022/12/13 10:12:53;;;;;;;27.50;11.60;;;-1.40;99.90;;;;;;5020635;28;20041;-72
2022/12/13 10:15:19;;;;;;;24.60;10.30;;;-1.40;99.90;;;;;;5012881;28;20132;-70
2022/12/13 10:17:47;;;;;;;25.80;11.45;;;-1.40;99.90;;;;;;5021043;28;20092;-69
2022/12/13 10:20:20;;;;;;;28.27;11.15;;;-1.40;99.90;;;;;;5003559;28;20096;-70
2022/12/13 10:22:46;;;;;;;34.28;11.75;;;-1.40;99.90;;;;;;5012047;28;20104;-70
2022/12/13 10:25:13;;;;;;;28.60;10.82;;;-1.30;99.90;;;;;;5018794;28;20025;-71
2022/12/13 10:27:48;;;;;;;31.08;10.63;;;-1.30;99.90;;;;;;5010148;28;20034;-70
2022/12/13 10:30:21;;;;;;;26.08;10.88;;;-1.30;99.90;;;;;;5011712;28;20072;-70
2022/12/13 10:32:54;;;;;;;32.72;12.52;;;-1.30;99.90;;;;;;5007725;28;20038;-70
2022/12/13 10:35:34;;;;;;;29.98;11.25;;;-1.30;99.90;;;;;;4997719;28;20033;-70
2022/12/13 10:38:19;;;;;;;29.67;11.00;;;-1.30;99.90;;;;;;4989040;28;20037;-70
2022/12/13 10:40:47;;;;;;;30.58;12.75;;;-1.30;99.90;;;;;;5015552;28;20441;-70
2022/12/13 10:43:28;;;;;;;34.30;14.07;;;-1.20;99.90;;;;;;5006667;28;21499;-70
2022/12/13 10:46:00;;;;;;;26.90;10.80;;;-1.10;99.90;;;;;;5016188;28;20133;-70
2022/12/13 10:48:34;;;;;;;34.65;12.85;;;-1.10;99.90;;;;;;5006558;28;20033;-71
2022/12/13 10:51:04;;;;;;;28.35;10.55;;;-1.00;99.90;;;;;;4989575;28;20526;-71
2022/12/13 10:53:33;;;;;;;35.83;11.85;;;-0.90;99.90;;;;;;5008581;28;20036;-70
2022/12/13 10:56:00;;;;;;;28.05;10.20;;;-0.80;99.90;;;;;;5007430;28;20057;-70
2022/12/13 10:58:35;;;;;;;25.95;11.23;;;-0.80;99.90;;;;;;5008367;28;20144;-70
2022/12/13 11:01:17;;;;;;;33.92;11.55;;;-0.70;99.90;;;;;;5009934;28;20123;-70
2022/12/13 11:03:56;;;;;;;30.00;11.25;;;-0.60;99.90;;;;;;4987584;28;20128;-69
2022/12/13 11:06:22;;;;;;;25.13;9.93;;;-0.60;99.90;;;;;;5009776;28;20042;-70
2022/12/13 11:08:47;;;;;;;27.45;10.93;;;-0.50;99.90;;;;;;5008882;28;20401;-73
2022/12/13 11:11:17;;;;;;;26.08;10.15;;;-0.50;99.90;;;;;;5016318;28;20112;-71
2022/12/13 11:13:52;;;;;;;29.17;8.93;;;-0.50;99.90;;;;;;5001770;28;20030;-70
2022/12/13 11:16:34;;;;;;;27.65;10.15;;;-0.40;99.90;;;;;;5007050;28;20068;-70
2022/12/13 11:19:10;;;;;;;24.00;9.73;;;-0.40;99.90;;;;;;5013338;28;20493;-71
2022/12/13 11:21:38;;;;;;;24.30;9.55;;;-0.40;99.90;;;;;;5011146;28;20091;-71
2022/12/13 11:24:06;;;;;;;26.27;10.10;;;-0.40;99.90;;;;;;5010970;28;20040;-70
2022/12/13 11:26:37;;;;;;;24.98;9.57;;;-0.40;99.90;;;;;;5005976;28;20041;-71
2022/12/13 11:29:41;;;;;;;27.92;9.98;;;-0.40;99.90;;;;;;4996869;28;20036;-70
2022/12/13 11:32:16;;;;;;;27.05;9.40;;;-0.40;99.90;;;;;;4984167;28;20034;-71
2022/12/13 11:35:15;;;;;;;23.88;9.73;;;-0.30;99.90;;;;;;5006369;28;20584;-70
2022/12/13 11:37:59;;;;;;;27.45;9.82;;;-0.30;99.90;;;;;;5007224;28;20033;-70
2022/12/13 11:40:29;;;;;;;24.35;9.18;;;-0.40;99.90;;;;;;5009401;28;20103;-71
2022/12/13 11:43:10;;;;;;;24.70;9.48;;;-0.30;99.90;;;;;;5007391;28;20034;-71
2022/12/13 11:45:45;;;;;;;18.92;9.02;;;-0.30;99.90;;;;;;4984569;28;20099;-70
2022/12/13 11:48:24;;;;;;;21.23;8.73;;;-0.30;99.90;;;;;;5009233;28;20046;-70
2022/12/13 11:50:52;;;;;;;23.70;9.13;;;-0.20;99.90;;;;;;5008859;28;20042;-71
2022/12/13 11:53:18;;;;;;;22.10;8.93;;;-0.20;99.90;;;;;;5006315;28;20044;-70
2022/12/13 11:56:20;;;;;;;23.15;9.55;;;-0.30;99.90;;;;;;5004586;28;20053;-70
2022/12/13 11:59:14;;;;;;;20.35;8.30;;;-0.30;99.90;;;;;;4961075;28;20038;-71
2022/12/13 12:01:52;;;;;;;26.23;10.32;;;-0.30;99.90;;;;;;5002903;28;20030;-70
2022/12/13 12:04:44;;;;;;;21.67;9.43;;;-0.30;99.90;;;;;;5004025;28;20041;-71
2022/12/13 12:07:16;;;;;;;23.02;9.75;;;-0.30;99.90;;;;;;5002714;28;20026;-71
2022/12/13 12:09:49;;;;;;;22.67;8.65;;;-0.40;99.90;;;;;;5008800;28;20060;-71
2022/12/13 12:12:42;;;;;;;23.13;8.77;;;-0.30;99.90;;;;;;4986899;28;20076;-71
2022/12/13 12:15:28;;;;;;;20.30;8.73;;;-0.40;99.90;;;;;;4987543;28;20037;-71
2022/12/13 12:17:55;;;;;;;22.30;9.57;;;-0.40;99.90;;;;;;5007984;28;20026;-71
2022/12/13 12:20:59;;;;;;;25.27;10.00;;;-0.40;99.90;;;;;;5004264;28;20049;-70
2022/12/13 12:23:54;;;;;;;28.75;9.63;;;-0.40;99.90;;;;;;5005199;28;20124;-70
2022/12/13 12:26:33;;;;;;;23.70;9.85;;;-0.40;99.90;;;;;;5008912;28;20054;-71
2022/12/13 12:29:25;;;;;;;21.45;9.43;;;-0.50;99.90;;;;;;5012140;28;20036;-70
2022/12/13 12:32:06;;;;;;;24.33;10.05;;;-0.50;99.90;;;;;;5008773;28;20111;-70
2022/12/13 12:35:08;;;;;;;26.27;9.77;;;-0.40;99.90;;;;;;5006169;28;20030;-71
2022/12/13 12:37:47;;;;;;;22.83;9.38;;;-0.40;99.90;;;;;;5003732;28;20365;-71
2022/12/13 12:40:46;;;;;;;21.77;9.63;;;-0.40;99.90;;;;;;5005368;28;20049;-70
2022/12/13 12:43:36;;;;;;;21.25;8.48;;;-0.40;99.90;;;;;;5008106;28;20034;-69
2022/12/13 12:46:10;;;;;;;25.10;9.48;;;-0.30;99.90;;;;;;5007139;28;20041;-70
2022/12/13 12:48:58;;;;;;;19.13;8.40;;;-0.30;99.90;;;;;;5006740;28;20052;-70
2022/12/13 12:51:46;;;;;;;24.77;9.68;;;-0.30;99.90;;;;;;4990391;28;20034;-70
2022/12/13 12:54:33;;;;;;;25.27;9.80;;;-0.20;99.90;;;;;;5008903;28;20044;-71
2022/12/13 12:57:27;;;;;;;19.77;9.57;;;-0.30;99.90;;;;;;4992102;28;20137;-72